HKJKFSIA

Guest
Details From HKJK - Nairobi Jomo Kanyatta Intl
To FSIA - Seychelles Intl
Flight Number -
Tags Generated
Created
Modified
Stats Distance 1,133 nm / 2,099 km
Max Altitude 0 ft / 0 m
Waypoints 3
Social Downloads 1
Likes 0
Share VATSIM

Download

Looking for another format? Having issues loading an existing format? Contact us
Advertisement - Login to hide

Notes

Generated

Route

HKJK SEYNB FSIA

ID Type Via Altitude Latitude Longitude Leg Dist Tot Dist Heading (true) Name
O HKJK APT - 0 ft / 0 m -1.32774˚ 36.91612˚ - 0 nm - -
SEYNB FIX - 0 ft / 0 m -4.61759˚ 55.43946˚ 1128 nm 1128 nm 100° / 100° -
O FSIA APT - 0 ft / 0 m -4.66663˚ 55.51080˚ 5 nm 1133 nm 125° / 125° -

Altitude Profile

Advertisement - Login to hide

Weather


0- 5 10 15 20 25 30 35+ Temperature / ° C

Clouds and Precipitation
Forecast for 2017-12-18 18:00 UTC. Updated 2 hours ago

Ground ~20,000 ft ~40,000 ft Winds

HKJK

Details ICAO HKJK (NBO)
Name Nairobi Jomo Kanyatta Intl
Region Kenya
Timezone Africa/Nairobi (UTC+3.0)
Stats Elevation 5,330 ft / 1,625 m (AMSL)
Location -1.317073° 36.930757°
Runways 1
Magnetic Variation 0.576° E

METAR

HKJK 181830Z 05007KT 9999 FEW032 19/14 Q1021

Decode

TAF

TAF HKJK 181700Z 1818/1924 03010KT 9999 SCT018 BECMG 1908/1911 05015KT SCT026 TEMPO 1912/1918 -SHRA FEW023CB SCT024 BECMG 1920/1923 03005KT SCT018

Decode

Departure Runways

ID Width Length Bearing (true) Bearing (mag) Surface Threshold Offset Overrun Length
06 148 ft / 45 m 13,215 ft / 4,028 m 53.90° 53.32° Asphalt 0 ft / 0 m 194 ft / 59 m
24 148 ft / 45 m 13,215 ft / 4,028 m 233.90° 233.32° Asphalt 0 ft / 0 m 197 ft / 60 m

FSIA

Details ICAO FSIA (SEZ)
Name SEYCHELLES INTL
Region Seychelles
Timezone Unknown (UTC+0.0)
Stats Elevation 10 ft / 3 m (AMSL)
Location -4.674378° 55.521829°
Runways 1
Magnetic Variation 5.043° W

METAR

FSIA 181900Z 27005KT 9999 SCT016 26/23 Q1013 NOSIG

Decode

TAF

TAF FSIA 181700Z 1818/1918 31005KT 9999 FEW014CB SCT016 PROB40 TEMPO 1900/1902 -SHRA FEW013CB BKN015 BECMG 1906/1908 29010KT

Decode

Destination Runways

ID Width Length Bearing (true) Bearing (mag) Surface Threshold Offset Overrun Length
13 151 ft / 46 m 9,813 ft / 2,991 m 125.18° 130.22° Concrete 1,001 ft / 305 m 279 ft / 85 m
31 151 ft / 46 m 9,813 ft / 2,991 m 305.18° 310.22° Concrete 1,001 ft / 305 m 115 ft / 35 m

Approach Navaids

Runway Type Ident Frequency Range Bearing (true) Bearing (mag) Slope Elevation
31 Localiser SIA 110.30 MHz 18 nm / 33 km 305.21° 310.25° - 10 ft / 3 m (AMSL)
31 Glidescope SIA 110.30 MHz 10 nm / 19 km 305.18° 310.22° 3.00° 10 ft / 3 m (AMSL)
31 DME SIA 110.30 MHz 18 nm / 33 km - - - 10 ft / 3 m (AMSL)

Popular Alternatives